Terminal Aerodrome Forecast
Issued by NWS

Home | Current Version | Previous Version | Text Only | Print | Product List | Glossary Off
Versions: 1 2 3 4 5 6 7 8 9 10 11 12

904
FTUS43 KGRB 241720
TAFCWA
TAF
KCWA 241720Z 2418/2518 16011G18KT P6SM BKN150
     FM250300 15009KT P6SM BKN140 WS020/18040KT
     FM251200 17009KT P6SM BKN120=

USA.gov is the U.S. government's official web portal to all federal, state and local government web resources and services.